Time;durP1;ratioP1;P1;durP2;ratioP2;P2;SDS_P1;SDS_P2;PMS_P1;PMS_P2;Temp;Humidity;BMP_temperature;BMP_pressure;BME280_temperature;BME280_humidity;BME280_pressure;Samples;Min_cycle;Max_cycle;Signal;HPM_P1;HPM_P2
2022/09/25 00:01:19;;;;;;;33.87;28.47;;;;;;;9.08;100.00;96710.94;4985565;28;20343;-56
2022/09/25 00:03:48;;;;;;;31.03;27.87;;;;;;;9.10;100.00;96708.94;5001989;28;20252;-61
2022/09/25 00:06:18;;;;;;;30.83;27.70;;;;;;;9.17;100.00;96705.56;4987303;28;21049;-57
2022/09/25 00:08:48;;;;;;;31.33;28.53;;;;;;;9.23;100.00;96708.25;5006933;28;20775;-55
2022/09/25 00:11:18;;;;;;;31.40;28.50;;;;;;;9.30;100.00;96710.97;4980601;28;21019;-61
2022/09/25 00:13:47;;;;;;;29.67;27.03;;;;;;;9.33;100.00;96700.00;4996772;28;20296;-60
2022/09/25 00:16:17;;;;;;;30.40;27.50;;;;;;;9.52;100.00;96706.50;4974389;28;20411;-56
2022/09/25 00:21:32;;;;;;;32.03;29.03;;;;;;;9.63;100.00;96710.47;5006461;28;20960;-58
2022/09/25 00:24:04;;;;;;;32.77;29.60;;;;;;;9.70;100.00;96716.66;4987216;28;20204;-59
2022/09/25 00:26:35;;;;;;;32.17;29.07;;;;;;;9.78;100.00;96712.22;4988712;28;20209;-54
2022/09/25 00:29:04;;;;;;;30.00;27.17;;;;;;;9.84;100.00;96711.47;4999467;28;20240;-58
2022/09/25 00:31:33;;;;;;;31.00;27.93;;;;;;;9.94;100.00;96711.97;4961432;28;20229;-54
2022/09/25 00:34:02;;;;;;;32.97;29.73;;;;;;;9.95;100.00;96710.97;4998180;28;20785;-55
2022/09/25 00:36:31;;;;;;;33.00;29.73;;;;;;;9.99;100.00;96714.03;5002926;28;20212;-60
2022/09/25 00:39:00;;;;;;;34.07;30.53;;;;;;;10.02;100.00;96703.06;4984395;28;20211;-58
2022/09/25 00:41:31;;;;;;;34.70;31.17;;;;;;;10.08;100.00;96704.13;4986381;28;20321;-57
2022/09/25 00:44:01;;;;;;;34.47;31.03;;;;;;;10.08;100.00;96706.78;4999039;28;20205;-60
2022/09/25 00:46:32;;;;;;;33.10;29.93;;;;;;;10.11;100.00;96707.22;4957571;28;20267;-57
2022/09/25 00:49:03;;;;;;;33.50;30.27;;;;;;;10.08;100.00;96704.97;4996316;28;20243;-59
2022/09/25 00:51:40;;;;;;;32.03;28.77;;;;;;;10.09;100.00;96703.94;5002274;28;20327;-61
2022/09/25 00:54:14;;;;;;;35.47;31.47;;;;;;;10.07;100.00;96700.66;4986336;28;20639;-61
2022/09/25 00:56:47;;;;;;;34.43;30.53;;;;;;;10.02;100.00;96683.72;5006980;28;20259;-62
2022/09/25 00:59:18;;;;;;;33.10;29.63;;;;;;;10.11;100.00;96695.78;4995413;28;20205;-59
2022/09/25 01:01:47;;;;;;;37.27;31.70;;;;;;;10.17;100.00;96691.56;4962928;28;20260;-59
2022/09/25 01:04:15;;;;;;;32.77;29.27;;;;;;;10.17;100.00;96684.44;5001183;28;20450;-60
2022/09/25 01:06:44;;;;;;;37.17;32.13;;;;;;;10.19;100.00;96690.34;5005514;28;20285;-59
2022/09/25 01:09:12;;;;;;;37.77;31.97;;;;;;;10.21;100.00;96687.50;4992858;28;20216;-57
2022/09/25 01:11:40;;;;;;;35.83;32.23;;;;;;;10.20;100.00;96678.75;5002692;28;20366;-61
2022/09/25 01:14:10;;;;;;;35.00;31.40;;;;;;;10.20;100.00;96680.59;4984259;28;20723;-59
2022/09/25 01:16:46;;;;;;;38.80;33.07;;;;;;;10.24;100.00;96689.78;4959579;28;20221;-58
2022/09/25 01:19:22;;;;;;;37.10;33.03;;;;;;;10.27;100.00;96684.91;4967043;28;20266;-60
2022/09/25 01:21:53;;;;;;;43.47;34.57;;;;;;;10.26;100.00;96683.28;4986215;28;20266;-57
2022/09/25 01:24:45;;;;;;;36.60;32.73;;;;;;;10.27;100.00;96684.09;5002930;28;20515;-55
2022/09/25 01:27:39;;;;;;;39.90;35.40;;;;;;;10.28;100.00;96685.72;4990974;28;20209;-60
2022/09/25 01:30:11;;;;;;;38.83;31.97;;;;;;;10.26;100.00;96682.47;5006454;28;20231;-60
2022/09/25 01:32:48;;;;;;;35.80;31.03;;;;;;;10.23;100.00;96681.03;5005318;28;20331;-56
2022/09/25 01:35:21;;;;;;;37.57;33.57;;;;;;;10.18;100.00;96672.81;4957471;28;20362;-59
2022/09/25 01:37:53;;;;;;;35.27;30.70;;;;;;;10.18;100.00;96677.31;5002142;28;20205;-58
2022/09/25 01:40:26;;;;;;;38.03;32.73;;;;;;;10.14;100.00;96668.94;5002674;28;20390;-59
2022/09/25 01:42:57;;;;;;;48.40;32.87;;;;;;;10.10;100.00;96678.28;4987654;28;20435;-57
2022/09/25 01:45:31;;;;;;;34.17;30.47;;;;;;;10.11;100.00;96670.16;5003838;28;20893;-56
2022/09/25 01:48:00;;;;;;;45.53;33.67;;;;;;;10.13;100.00;96668.13;5008336;28;20224;-55
2022/09/25 01:50:32;;;;;;;37.97;33.83;;;;;;;10.20;100.00;96677.94;4944496;28;21039;-56
2022/09/25 01:53:03;;;;;;;36.93;33.07;;;;;;;10.22;100.00;96674.06;5000617;28;21091;-59
2022/09/25 01:55:48;;;;;;;43.73;34.30;;;;;;;10.17;100.00;96673.84;5004198;28;20232;-62
2022/09/25 01:58:39;;;;;;;38.10;33.93;;;;;;;10.16;100.00;96674.03;4988204;28;20437;-59
2022/09/25 02:01:12;;;;;;;39.90;34.73;;;;;;;10.24;100.00;96679.19;4999599;28;20244;-60
2022/09/25 02:03:46;;;;;;;40.47;33.93;;;;;;;10.23;100.00;96672.25;5008804;28;20288;-62
2022/09/25 02:06:18;;;;;;;46.27;35.47;;;;;;;10.20;100.00;96673.44;4969690;28;20699;-60
2022/09/25 02:08:52;;;;;;;41.17;34.40;;;;;;;10.23;100.00;96674.91;5003002;28;20539;-56
2022/09/25 02:11:21;;;;;;;46.77;35.57;;;;;;;10.23;100.00;96669.59;4998818;28;20590;-58
2022/09/25 02:13:51;;;;;;;61.83;36.50;;;;;;;10.24;100.00;96664.13;4986876;28;20219;-58
2022/09/25 02:16:23;;;;;;;51.03;35.80;;;;;;;10.21;100.00;96661.84;4999064;28;20213;-57
2022/09/25 02:21:44;;;;;;;39.27;34.87;;;;;;;10.19;100.00;96660.41;4956231;28;20483;-56
2022/09/25 02:24:20;;;;;;;44.90;34.30;;;;;;;10.18;100.00;96662.25;5002278;28;20306;-59
2022/09/25 02:26:48;;;;;;;48.07;35.47;;;;;;;10.19;100.00;96657.78;5004325;28;20204;-57
2022/09/25 02:29:18;;;;;;;41.37;35.80;;;;;;;10.18;100.00;96666.72;4985927;28;20395;-59
2022/09/25 02:31:52;;;;;;;46.20;37.03;;;;;;;10.19;100.00;96665.72;5001457;28;20294;-60
2022/09/25 02:34:21;;;;;;;47.77;36.40;;;;;;;10.22;100.00;96670.63;5003555;28;20454;-58
2022/09/25 02:36:49;;;;;;;55.73;37.57;;;;;;;10.19;100.00;96666.53;5004288;28;20231;-56
2022/09/25 02:39:20;;;;;;;55.00;39.07;;;;;;;10.16;100.00;96671.41;4947108;28;20298;-57
2022/09/25 02:41:59;;;;;;;44.83;37.47;;;;;;;10.19;100.00;96660.41;5004445;28;20259;-55
2022/09/25 02:44:33;;;;;;;56.43;37.57;;;;;;;10.17;100.00;96667.75;4985014;28;20833;-58
2022/09/25 02:47:13;;;;;;;46.60;36.17;;;;;;;10.19;100.00;96663.06;5002888;28;20200;-59
2022/09/25 02:49:50;;;;;;;44.97;37.30;;;;;;;10.21;100.00;96656.53;5003151;28;21073;-56
2022/09/25 02:52:24;;;;;;;47.47;38.20;;;;;;;10.23;100.00;96659.00;4998340;28;20263;-56
2022/09/25 02:54:56;;;;;;;47.63;39.13;;;;;;;10.24;100.00;96660.66;4952185;28;20224;-57
2022/09/25 02:57:29;;;;;;;51.33;38.83;;;;;;;10.24;100.00;96665.94;4997823;28;20609;-56
2022/09/25 03:00:01;;;;;;;48.43;36.40;;;;;;;10.25;100.00;96671.06;4969699;28;20572;-56
2022/09/25 03:02:33;;;;;;;51.30;38.80;;;;;;;10.25;100.00;96665.75;4981792;28;20303;-54
2022/09/25 03:05:02;;;;;;;49.03;38.10;;;;;;;10.26;100.00;96656.81;5003894;28;20232;-53
2022/09/25 03:08:36;;;;;;;47.90;36.73;;;;;;;10.26;100.00;96651.50;5007088;28;20236;-56
2022/09/25 03:10:20;;;;;;;54.53;39.20;;;;;;;10.26;100.00;96662.09;4953896;28;20285;-55
2022/09/25 03:12:48;;;;;;;46.00;38.07;;;;;;;10.27;100.00;96655.78;5007286;28;20235;-56
2022/09/25 03:15:17;;;;;;;48.33;37.43;;;;;;;10.32;100.00;96660.50;5001602;28;20275;-53
2022/09/25 03:17:49;;;;;;;56.13;38.93;;;;;;;10.31;100.00;96658.84;4983129;28;20231;-56
2022/09/25 03:20:18;;;;;;;52.30;35.83;;;;;;;10.33;100.00;96656.81;5008293;28;20438;-60
2022/09/25 03:22:46;;;;;;;46.13;36.70;;;;;;;10.42;100.00;96663.66;5005973;28;20208;-59
2022/09/25 03:25:15;;;;;;;46.70;35.73;;;;;;;10.43;100.00;96651.22;4952858;28;21345;-57
2022/09/25 03:27:44;;;;;;;46.63;35.40;;;;;;;10.38;100.00;96656.25;4922865;28;20446;-56
2022/09/25 03:30:13;;;;;;;45.43;35.53;;;;;;;10.40;100.00;96663.00;5000029;28;20209;-58
2022/09/25 03:32:41;;;;;;;46.43;36.97;;;;;;;10.36;100.00;96664.38;4987224;28;20224;-52
2022/09/25 03:35:11;;;;;;;44.20;36.77;;;;;;;10.37;100.00;96671.31;4980822;28;20302;-60
2022/09/25 03:37:40;;;;;;;46.20;35.03;;;;;;;10.41;100.00;96667.28;4977224;28;20215;-59
2022/09/25 03:40:09;;;;;;;46.40;36.23;;;;;;;10.41;100.00;96659.34;4980074;28;20702;-51
2022/09/25 03:42:37;;;;;;;48.03;35.50;;;;;;;10.34;100.00;96647.88;4950661;28;20239;-54
2022/09/25 03:45:08;;;;;;;48.20;36.53;;;;;;;10.42;100.00;96668.13;5000219;28;20770;-52
2022/09/25 03:47:37;;;;;;;47.30;37.17;;;;;;;10.39;100.00;96661.34;4978197;28;21614;-52
2022/09/25 03:50:07;;;;;;;46.17;34.20;;;;;;;10.41;100.00;96664.63;4998538;28;20224;-53
2022/09/25 03:52:37;;;;;;;46.73;34.23;;;;;;;10.32;100.00;96649.91;5005519;28;20239;-51
2022/09/25 03:55:06;;;;;;;46.33;35.00;;;;;;;10.38;100.00;96657.06;4979394;28;20290;-52
2022/09/25 03:57:35;;;;;;;45.87;35.80;;;;;;;10.39;100.00;96658.69;4951104;28;21280;-50
2022/09/25 04:00:04;;;;;;;44.07;35.17;;;;;;;10.44;100.00;96663.44;4995579;28;20216;-53
2022/09/25 04:02:32;;;;;;;42.40;33.33;;;;;;;10.45;100.00;96658.97;4999502;28;20811;-53
2022/09/25 04:05:02;;;;;;;43.80;34.67;;;;;;;10.45;100.00;96656.31;4980808;28;20274;-53
2022/09/25 04:07:31;;;;;;;46.63;32.97;;;;;;;10.44;100.00;96650.19;4998588;28;20204;-53
2022/09/25 04:10:01;;;;;;;45.30;33.33;;;;;;;10.44;100.00;96647.56;4947073;28;20805;-54
2022/09/25 04:12:30;;;;;;;46.33;33.50;;;;;;;10.44;100.00;96639.59;4972210;28;20240;-52
2022/09/25 04:14:58;;;;;;;41.43;34.27;;;;;;;10.50;100.00;96644.09;4985499;28;20232;-50
2022/09/25 04:17:27;;;;;;;42.53;33.33;;;;;;;10.51;100.00;96637.00;4993419;28;20213;-53
2022/09/25 04:19:56;;;;;;;46.67;33.03;;;;;;;10.47;100.00;96633.91;4986272;28;20379;-51
2022/09/25 04:22:24;;;;;;;39.97;33.20;;;;;;;10.54;100.00;96641.91;4999788;28;20258;-53
2022/09/25 04:24:53;;;;;;;46.85;40.40;;;;;;;10.56;100.00;96645.97;4979963;28;23029;-55
2022/09/25 04:27:25;;;;;;;45.80;35.03;;;;;;;10.55;100.00;96639.03;4968914;28;20565;-59
2022/09/25 04:29:54;;;;;;;44.40;34.27;;;;;;;10.54;100.00;96640.06;4978630;28;20819;-61
2022/09/25 04:35:08;;;;;;;42.87;33.30;;;;;;;10.52;100.00;96638.63;4990103;28;20296;-55
2022/09/25 04:37:37;;;;;;;40.33;32.23;;;;;;;10.53;100.00;96632.31;5000232;28;20216;-59
2022/09/25 04:40:06;;;;;;;39.17;32.23;;;;;;;10.54;100.00;96632.09;4983726;28;20318;-58
2022/09/25 04:42:36;;;;;;;40.80;31.13;;;;;;;10.51;100.00;96640.44;4975142;28;20216;-58
2022/09/25 04:45:05;;;;;;;35.50;30.53;;;;;;;10.51;100.00;96643.09;4928008;28;20764;-59
2022/09/25 04:47:34;;;;;;;40.13;33.07;;;;;;;10.50;100.00;96643.31;5003215;28;20212;-55
2022/09/25 04:50:02;;;;;;;34.43;29.77;;;;;;;10.49;100.00;96645.13;5010349;28;20204;-58
2022/09/25 04:52:31;;;;;;;37.93;32.53;;;;;;;10.53;100.00;96640.25;4986950;28;20317;-60
2022/09/25 04:55:00;;;;;;;35.83;30.20;;;;;;;10.53;100.00;96640.25;5008969;28;20255;-55
2022/09/25 04:57:28;;;;;;;34.63;29.17;;;;;;;10.52;100.00;96638.63;4952491;28;20219;-58
2022/09/25 05:00:18;;;;;;;33.30;28.90;;;;;;;10.49;100.00;96637.19;4939752;28;20212;-60
2022/09/25 05:02:46;;;;;;;33.10;28.90;;;;;;;10.51;100.00;96637.00;5010320;28;20285;-59
2022/09/25 05:05:15;;;;;;;33.67;30.00;;;;;;;10.47;100.00;96630.47;5009662;28;20224;-59
2022/09/25 05:07:51;;;;;;;39.50;29.70;;;;;;;10.37;100.00;96620.19;4984843;28;20230;-54
2022/09/25 05:10:20;;;;;;;31.10;27.80;;;;;;;10.30;100.00;96619.34;5006064;28;20287;-60
2022/09/25 05:12:49;;;;;;;32.80;28.07;;;;;;;10.30;100.00;96633.38;4932057;28;20719;-55
2022/09/25 05:15:19;;;;;;;30.53;26.67;;;;;;;10.27;100.00;96631.13;4956176;28;20690;-58
2022/09/25 05:17:47;;;;;;;31.57;28.10;;;;;;;10.26;100.00;96632.16;5001769;28;20588;-59
2022/09/25 05:20:16;;;;;;;32.33;28.87;;;;;;;10.25;100.00;96630.50;5003491;28;20240;-58
2022/09/25 05:22:44;;;;;;;31.43;27.67;;;;;;;10.19;100.00;96624.16;4985011;28;20303;-60
2022/09/25 05:25:13;;;;;;;35.97;30.47;;;;;;;10.16;100.00;96621.09;5005139;28;20980;-56
2022/09/25 05:27:43;;;;;;;35.27;30.77;;;;;;;10.19;100.00;96626.00;4982993;28;20236;-58
2022/09/25 05:30:12;;;;;;;33.40;29.77;;;;;;;10.13;100.00;96617.84;4921135;28;20836;-61
2022/09/25 05:32:48;;;;;;;34.63;29.83;;;;;;;10.20;100.00;96625.78;4999398;28;20369;-52
2022/09/25 05:35:17;;;;;;;33.47;29.70;;;;;;;10.23;100.00;96625.44;4926915;28;20301;-59
2022/09/25 05:37:46;;;;;;;32.70;29.13;;;;;;;10.28;100.00;96630.13;5000120;28;20209;-53
2022/09/25 05:40:15;;;;;;;31.77;28.47;;;;;;;10.30;100.00;96622.00;4969901;28;20295;-55
2022/09/25 05:42:45;;;;;;;33.10;28.50;;;;;;;10.33;100.00;96622.41;5000878;28;20216;-57
2022/09/25 05:45:14;;;;;;;35.97;29.50;;;;;;;10.31;100.00;96626.28;5004592;28;20220;-57
2022/09/25 05:47:44;;;;;;;35.27;28.73;;;;;;;10.34;100.00;96628.53;5005695;28;20352;-58
2022/09/25 05:50:14;;;;;;;33.03;27.57;;;;;;;10.40;100.00;96631.22;4957773;28;21880;-59
2022/09/25 05:52:43;;;;;;;33.33;27.53;;;;;;;10.49;100.00;96631.88;5003447;28;20228;-59
2022/09/25 05:55:11;;;;;;;32.70;28.17;;;;;;;10.50;100.00;96632.72;5000556;28;20302;-58
2022/09/25 05:57:39;;;;;;;33.63;27.23;;;;;;;10.49;100.00;96633.72;4986133;28;20216;-57
2022/09/25 06:00:10;;;;;;;34.73;29.70;;;;;;;10.49;100.00;96631.88;5003465;28;20209;-57
2022/09/25 06:02:38;;;;;;;34.07;29.90;;;;;;;10.46;100.00;96632.28;5008428;28;20204;-58
2022/09/25 06:05:09;;;;;;;35.20;29.97;;;;;;;10.46;100.00;96636.78;4965265;28;20379;-54
2022/09/25 06:07:37;;;;;;;33.60;28.37;;;;;;;10.60;100.00;96648.22;4951296;28;20700;-54
2022/09/25 06:10:07;;;;;;;36.20;28.77;;;;;;;10.71;100.00;96648.47;4979020;28;20309;-56
2022/09/25 06:12:36;;;;;;;31.73;28.40;;;;;;;10.91;100.00;96654.88;4973262;28;20232;-54
2022/09/25 06:15:05;;;;;;;34.87;28.20;;;;;;;10.98;100.00;96655.69;5002092;28;20305;-58
2022/09/25 06:17:33;;;;;;;32.67;27.90;;;;;;;10.95;100.00;96654.28;5004122;28;20296;-55
2022/09/25 06:20:02;;;;;;;29.40;26.17;;;;;;;11.00;100.00;96651.84;5004783;28;20650;-57
2022/09/25 06:22:32;;;;;;;30.27;27.17;;;;;;;11.01;100.00;96652.69;4961965;28;20898;-56
2022/09/25 06:25:00;;;;;;;30.57;26.53;;;;;;;11.14;100.00;96644.75;5004230;28;20298;-56
2022/09/25 06:27:30;;;;;;;30.10;25.87;;;;;;;11.19;100.00;96641.50;4983186;28;20481;-55
2022/09/25 06:29:58;;;;;;;29.53;26.07;;;;;;;11.18;100.00;96641.69;4976306;28;20233;-57
2022/09/25 06:32:27;;;;;;;28.57;25.03;;;;;;;11.26;100.00;96639.66;4998690;28;20201;-59
2022/09/25 06:34:55;;;;;;;34.13;27.67;;;;;;;11.40;100.00;96634.38;5005253;28;20219;-55
2022/09/25 06:37:24;;;;;;;30.20;26.93;;;;;;;11.43;100.00;96629.50;5001725;28;20549;-56
2022/09/25 06:39:54;;;;;;;32.23;26.97;;;;;;;11.28;100.00;96637.63;4937764;28;20530;-54
2022/09/25 06:42:22;;;;;;;34.17;30.53;;;;;;;11.25;100.00;96637.22;4992756;28;20224;-57
2022/09/25 06:44:51;;;;;;;30.33;27.17;;;;;;;11.28;100.00;96632.31;4971871;28;20267;-55
2022/09/25 06:47:19;;;;;;;29.70;25.83;;;;;;;11.41;100.00;96630.69;4982531;28;20602;-59
2022/09/25 06:49:53;;;;;;;30.57;27.37;;;;;;;11.68;100.00;96623.56;5007948;28;20640;-57
2022/09/25 06:52:22;;;;;;;28.90;25.73;;;;;;;11.92;100.00;96621.31;5003191;28;20309;-53
2022/09/25 06:54:50;;;;;;;28.70;25.70;;;;;;;12.17;100.00;96620.69;4958975;28;20749;-54
2022/09/25 06:57:20;;;;;;;30.03;25.27;;;;;;;12.35;100.00;96614.72;4983209;28;20212;-62
2022/09/25 06:59:49;;;;;;;26.80;23.63;;;;;;;12.86;100.00;96610.41;4983086;28;20640;-57
2022/09/25 07:05:03;;;;;;;25.17;22.55;;;;;;;13.28;100.00;96601.97;5003883;28;21026;-58
2022/09/25 07:07:32;;;;;;;25.07;22.43;;;;;;;13.37;100.00;96591.88;4999581;28;20689;-60
2022/09/25 07:10:00;;;;;;;24.40;21.83;;;;;;;13.36;100.00;96595.56;4953037;28;20240;-55
2022/09/25 07:12:33;;;;;;;22.00;19.63;;;;;;;13.22;100.00;96589.53;4986500;28;20780;-60
2022/09/25 07:15:01;;;;;;;22.67;20.43;;;;;;;13.65;100.00;96588.03;4980684;28;20235;-57
2022/09/25 07:17:29;;;;;;;22.07;19.87;;;;;;;13.78;100.00;96586.25;5001729;28;20288;-57
2022/09/25 07:19:58;;;;;;;22.53;20.27;;;;;;;14.14;100.00;96588.13;4995374;28;20247;-57
2022/09/25 07:22:26;;;;;;;21.93;19.63;;;;;;;14.70;100.00;96589.97;4995952;28;20346;-57
2022/09/25 07:24:55;;;;;;;21.63;19.50;;;;;;;15.04;100.00;96580.50;4956570;28;20228;-59
2022/09/25 07:27:23;;;;;;;21.43;19.33;;;;;;;15.26;100.00;96579.16;4980689;28;20204;-60
2022/09/25 07:29:54;;;;;;;21.77;19.53;;;;;;;15.29;100.00;96579.50;4984228;28;20323;-54
2022/09/25 07:32:22;;;;;;;21.70;19.53;;;;;;;15.01;100.00;96577.47;5001315;28;20638;-56
2022/09/25 07:34:51;;;;;;;21.70;19.67;;;;;;;15.22;100.00;96586.00;5003455;28;20244;-58
2022/09/25 07:37:19;;;;;;;19.47;17.47;;;;;;;15.02;100.00;96560.44;4973954;28;20213;-58
2022/09/25 07:39:48;;;;;;;19.80;18.00;;;;;;;15.06;100.00;96572.25;4959826;28;20213;-54
2022/09/25 07:42:16;;;;;;;20.60;18.60;;;;;;;14.82;100.00;96579.38;4936691;28;20311;-58
2022/09/25 07:44:45;;;;;;;20.97;19.00;;;;;;;14.53;100.00;96584.41;4996671;28;20333;-55
2022/09/25 07:47:18;;;;;;;20.17;18.10;;;;;;;14.42;100.00;96581.47;4986712;28;20338;-60
2022/09/25 07:49:47;;;;;;;18.97;17.07;;;;;;;14.31;100.00;96582.25;4993401;28;20255;-55
2022/09/25 07:52:15;;;;;;;23.53;20.53;;;;;;;14.32;100.00;96590.00;4984368;28;20307;-52
2022/09/25 07:54:43;;;;;;;25.63;23.10;;;;;;;14.30;100.00;96602.72;4993884;28;20383;-56
2022/09/25 07:57:12;;;;;;;23.83;21.53;;;;;;;13.94;100.00;96606.19;4955942;28;20627;-56
2022/09/25 07:59:40;;;;;;;23.13;21.07;;;;;;;13.82;100.00;96604.22;4996002;28;20230;-59
2022/09/25 08:02:10;;;;;;;22.13;19.93;;;;;;;13.64;100.00;96605.03;4967854;28;20692;-58
2022/09/25 08:04:40;;;;;;;21.67;19.67;;;;;;;13.62;100.00;96611.59;5003850;28;20282;-57
2022/09/25 08:07:08;;;;;;;22.90;20.60;;;;;;;13.65;100.00;96614.63;4967955;28;20224;-60
2022/09/25 08:09:37;;;;;;;22.53;20.33;;;;;;;13.54;100.00;96610.00;4983296;28;20307;-60
2022/09/25 08:12:06;;;;;;;21.57;19.43;;;;;;;13.42;100.00;96613.38;4949139;28;20688;-54
2022/09/25 08:14:35;;;;;;;22.40;20.10;;;;;;;13.41;100.00;96611.72;4982199;28;20319;-62
2022/09/25 08:17:04;;;;;;;22.90;20.63;;;;;;;13.39;100.00;96610.28;4984707;28;20589;-61
2022/09/25 08:19:32;;;;;;;23.17;20.87;;;;;;;13.08;100.00;96614.59;4979157;28;20785;-59
2022/09/25 08:22:02;;;;;;;23.63;20.93;;;;;;;13.15;100.00;96605.53;4990482;28;20656;-60
2022/09/25 08:24:31;;;;;;;23.13;20.97;;;;;;;13.18;100.00;96614.94;4997888;28;20223;-59
2022/09/25 08:26:59;;;;;;;22.13;19.93;;;;;;;13.17;100.00;96613.31;4953217;28;20322;-59
2022/09/25 08:29:28;;;;;;;22.97;20.37;;;;;;;12.98;100.00;96607.06;4996895;28;20212;-57
2022/09/25 08:31:57;;;;;;;22.73;20.43;;;;;;;13.17;100.00;96615.97;4985812;28;20224;-58
2022/09/25 08:34:26;;;;;;;23.20;20.83;;;;;;;13.12;100.00;96615.81;4968546;28;20676;-56
2022/09/25 08:37:09;;;;;;;21.90;19.80;;;;;;;13.24;100.00;96621.22;4992288;28;20207;-60
2022/09/25 08:39:37;;;;;;;25.23;22.53;;;;;;;13.16;100.00;96612.47;4979723;28;20298;-60
2022/09/25 08:42:06;;;;;;;24.37;21.53;;;;;;;13.32;100.00;96608.50;4930558;28;21285;-57
2022/09/25 08:44:37;;;;;;;22.67;20.57;;;;;;;13.35;100.00;96606.41;4979408;28;20251;-57
2022/09/25 08:50:01;;;;;;;25.00;22.07;;;;;;;13.52;100.00;96612.06;4979835;28;20452;-53
2022/09/25 08:52:33;;;;;;;25.23;22.73;;;;;;;13.43;100.00;96606.19;5000952;28;20208;-53
2022/09/25 08:55:02;;;;;;;25.33;22.83;;;;;;;13.62;100.00;96598.28;4968313;28;20637;-52
2022/09/25 08:57:34;;;;;;;23.03;20.67;;;;;;;13.71;100.00;96597.78;4997188;28;20732;-59
2022/09/25 09:00:07;;;;;;;23.50;21.20;;;;;;;13.96;100.00;96598.78;4938224;28;20254;-59
2022/09/25 09:02:41;;;;;;;24.50;22.00;;;;;;;13.97;100.00;96603.88;5003112;28;20519;-57
2022/09/25 09:05:18;;;;;;;24.37;21.83;;;;;;;14.08;100.00;96596.22;4985729;28;21604;-55
2022/09/25 09:07:52;;;;;;;22.67;20.53;;;;;;;14.41;100.00;96597.72;5001260;28;20201;-60
2022/09/25 09:10:28;;;;;;;23.77;21.57;;;;;;;14.72;100.00;96595.91;4983502;28;20220;-55
2022/09/25 09:13:00;;;;;;;24.70;22.20;;;;;;;15.11;100.00;96587.59;4952761;28;20212;-58
2022/09/25 09:15:35;;;;;;;22.63;20.20;;;;;;;15.00;100.00;96592.69;4988425;28;20228;-55
2022/09/25 09:18:21;;;;;;;21.83;19.53;;;;;;;14.86;100.00;96588.56;5003452;28;20337;-55
2022/09/25 09:20:52;;;;;;;22.07;19.97;;;;;;;14.77;100.00;96582.72;4988816;28;20672;-60
2022/09/25 09:23:23;;;;;;;23.53;21.07;;;;;;;14.61;100.00;96584.13;5010882;28;20204;-55
2022/09/25 09:26:00;;;;;;;22.30;20.10;;;;;;;14.95;100.00;96581.06;4991351;28;20272;-58
2022/09/25 09:28:57;;;;;;;21.63;19.50;;;;;;;15.21;100.00;96571.84;5014296;28;20219;-57
2022/09/25 09:31:30;;;;;;;22.47;20.37;;;;;;;15.41;100.00;96568.06;5004744;28;20311;-56
2022/09/25 09:34:04;;;;;;;21.50;19.20;;;;;;;15.74;100.00;96569.38;5002563;28;20439;-53
2022/09/25 09:36:38;;;;;;;22.13;19.83;;;;;;;15.48;100.00;96560.75;5016285;28;20207;-57
2022/09/25 09:39:14;;;;;;;21.57;19.37;;;;;;;15.58;100.00;96563.66;5025502;28;20495;-58
2022/09/25 09:41:49;;;;;;;22.73;20.57;;;;;;;15.90;99.28;96551.84;4977511;28;20208;-53
2022/09/25 09:44:25;;;;;;;23.27;20.97;;;;;;;15.51;97.82;96543.44;5025127;28;20278;-54
2022/09/25 09:47:03;;;;;;;20.63;18.57;;;;;;;15.95;96.44;96556.47;4978753;28;21330;-53
2022/09/25 09:49:36;;;;;;;20.23;18.33;;;;;;;15.81;96.60;96561.22;4943635;28;20303;-63
2022/09/25 09:52:09;;;;;;;21.40;19.40;;;;;;;15.68;97.89;96562.25;5009702;28;20224;-62
2022/09/25 09:54:42;;;;;;;20.57;18.57;;;;;;;16.00;94.29;96562.75;5005161;28;20223;-58
2022/09/25 09:57:14;;;;;;;19.30;17.27;;;;;;;15.94;93.18;96549.53;5009495;28;20624;-62
2022/09/25 09:59:46;;;;;;;20.10;18.20;;;;;;;16.25;91.97;96555.53;5025480;28;20422;-63
2022/09/25 10:02:27;;;;;;;19.90;17.93;;;;;;;16.07;92.60;96557.28;5026454;28;20747;-61
2022/09/25 10:04:56;;;;;;;20.63;18.73;;;;;;;15.95;90.90;96549.28;4975830;28;20235;-61
2022/09/25 10:07:27;;;;;;;20.10;18.10;;;;;;;15.76;92.60;96553.94;5020281;28;20207;-63
2022/09/25 10:09:57;;;;;;;17.93;16.33;;;;;;;15.97;92.61;96549.03;5012137;28;20218;-59
2022/09/25 10:12:29;;;;;;;19.67;17.83;;;;;;;16.01;89.68;96542.19;5007427;28;20205;-62
2022/09/25 10:14:59;;;;;;;21.00;19.00;;;;;;;15.70;89.24;96544.16;5026563;28;20228;-63
2022/09/25 10:17:28;;;;;;;19.30;17.40;;;;;;;16.08;89.24;96544.75;5025825;28;20301;-62
2022/09/25 10:20:00;;;;;;;20.60;18.80;;;;;;;15.78;87.63;96541.94;4979040;28;20211;-57
2022/09/25 10:22:32;;;;;;;19.53;17.80;;;;;;;16.23;88.53;96539.69;5018455;28;20207;-60
2022/09/25 10:25:02;;;;;;;19.70;17.83;;;;;;;16.27;87.36;96540.06;5021830;28;20247;-60
2022/09/25 10:27:34;;;;;;;21.97;19.90;;;;;;;16.22;83.93;96540.75;5009356;28;20296;-56
2022/09/25 10:30:13;;;;;;;21.90;19.67;;;;;;;16.13;85.31;96545.66;5008085;28;20769;-60
2022/09/25 10:32:44;;;;;;;19.77;17.87;;;;;;;15.89;89.08;96545.69;5024899;28;20411;-65
2022/09/25 10:35:15;;;;;;;22.70;20.37;;;;;;;15.38;93.94;96552.50;4972652;28;20227;-59
2022/09/25 10:37:43;;;;;;;22.57;20.47;;;;;;;15.40;95.77;96551.22;5025399;28;20305;-55
2022/09/25 10:40:28;;;;;;;21.77;19.67;;;;;;;15.19;98.34;96544.56;5025435;28;20853;-60
2022/09/25 10:43:05;;;;;;;23.60;21.20;;;;;;;15.23;98.47;96543.06;5008075;28;20626;-59
2022/09/25 10:45:35;;;;;;;21.77;19.60;;;;;;;15.50;98.12;96534.63;5004849;28;20457;-61
2022/09/25 10:51:16;;;;;;;21.50;19.33;;;;;;;15.47;95.41;96535.91;5026368;28;20299;-58
2022/09/25 10:53:45;;;;;;;23.07;20.87;;;;;;;15.80;94.14;96539.06;5022784;28;20488;-61
2022/09/25 10:56:19;;;;;;;22.43;20.33;;;;;;;16.17;91.29;96537.97;5025976;28;20345;-60
2022/09/25 10:58:51;;;;;;;21.13;19.23;;;;;;;15.79;92.37;96540.09;4986851;28;20673;-61
2022/09/25 11:01:20;;;;;;;22.23;19.97;;;;;;;16.15;95.05;96535.56;5022218;28;20208;-59
2022/09/25 11:03:52;;;;;;;23.57;21.20;;;;;;;16.71;88.19;96535.03;5026349;28;20286;-59
2022/09/25 11:06:26;;;;;;;23.30;21.07;;;;;;;17.08;85.07;96533.84;4972600;28;20350;-61
2022/09/25 11:09:07;;;;;;;23.03;20.60;;;;;;;17.28;81.78;96529.84;5025435;28;20291;-64
2022/09/25 11:11:38;;;;;;;21.13;19.23;;;;;;;17.88;79.24;96535.59;5023806;28;20416;-62
2022/09/25 11:14:08;;;;;;;23.20;19.97;;;;;;;18.04;76.12;96537.44;4993981;28;20225;-56
2022/09/25 11:16:52;;;;;;;22.23;20.17;;;;;;;18.55;74.00;96538.31;5022602;28;20477;-60
2022/09/25 11:19:28;;;;;;;24.40;21.53;;;;;;;18.02;74.22;96542.22;5024131;28;20196;-59
2022/09/25 11:22:06;;;;;;;23.10;21.03;;;;;;;18.23;74.67;96526.44;4978562;28;20591;-59
2022/09/25 11:24:45;;;;;;;20.90;18.90;;;;;;;18.15;72.08;96533.03;5025172;28;20368;-60
2022/09/25 11:27:20;;;;;;;23.27;21.17;;;;;;;17.97;72.44;96534.09;5024076;28;20906;-60
2022/09/25 11:29:57;;;;;;;22.97;20.67;;;;;;;18.16;74.23;96544.53;4994934;28;20769;-62
2022/09/25 11:32:32;;;;;;;22.93;20.83;;;;;;;18.23;74.55;96540.63;5019076;28;20902;-59
2022/09/25 11:35:31;;;;;;;22.90;20.77;;;;;;;17.96;75.06;96534.31;5026894;28;20229;-60
2022/09/25 11:38:08;;;;;;;23.47;21.27;;;;;;;17.47;77.53;96533.94;5019413;28;20651;-57
2022/09/25 11:43:46;;;;;;;23.67;21.43;;;;;;;17.00;79.37;96528.84;5004253;28;20871;-60
2022/09/25 11:46:20;;;;;;;22.03;19.90;;;;;;;16.96;81.03;96525.00;5009028;28;20645;-59
2022/09/25 11:48:55;;;;;;;24.23;21.93;;;;;;;16.89;79.00;96523.31;5027363;28;20258;-59
2022/09/25 11:51:34;;;;;;;24.83;22.23;;;;;;;16.83;80.46;96518.09;4972709;28;20486;-59